createdAt,value
2022-09-04T00:02:27.593Z,65.43
2022-09-04T00:05:27.428Z,65.30
2022-09-04T00:08:17.466Z,64.13
2022-09-04T00:11:31.535Z,62.47
2022-09-04T00:14:18.390Z,63.00
2022-09-04T00:17:10.873Z,66.23
2022-09-04T00:19:59.426Z,61.83
2022-09-04T00:22:54.881Z,64.03
2022-09-04T00:25:37.781Z,62.90
2022-09-04T00:28:24.123Z,61.10
2022-09-04T00:31:09.225Z,60.70
2022-09-04T00:34:00.604Z,61.07
2022-09-04T00:36:32.500Z,60.30
2022-09-04T00:39:14.102Z,62.17
2022-09-04T00:41:57.861Z,61.27
2022-09-04T00:44:56.270Z,63.63
2022-09-04T00:47:55.912Z,62.93
2022-09-04T00:50:46.468Z,60.43
2022-09-04T00:53:42.708Z,63.57
2022-09-04T00:56:28.744Z,63.63
2022-09-04T00:59:23.045Z,63.57
2022-09-04T01:02:04.471Z,66.35
2022-09-04T01:04:45.908Z,59.47
2022-09-04T01:07:35.285Z,61.73
2022-09-04T01:10:19.561Z,61.03
2022-09-04T01:13:06.881Z,64.60
2022-09-04T01:15:46.038Z,60.53
2022-09-04T01:18:46.917Z,62.03
2022-09-04T01:21:43.429Z,63.47
2022-09-04T01:24:58.897Z,64.33
2022-09-04T01:27:45.986Z,59.17
2022-09-04T01:30:22.337Z,60.93
2022-09-04T01:33:31.539Z,62.40
2022-09-04T01:36:22.867Z,60.77
2022-09-04T01:38:58.546Z,62.37
2022-09-04T01:41:37.803Z,63.10
2022-09-04T01:44:11.720Z,60.63
2022-09-04T01:46:55.101Z,61.20
2022-09-04T01:49:53.958Z,63.30
2022-09-04T01:52:47.952Z,60.60
2022-09-04T01:55:44.894Z,63.60
2022-09-04T01:58:38.665Z,61.60
2022-09-04T02:01:29.460Z,62.73
2022-09-04T02:04:18.259Z,60.87
2022-09-04T02:07:10.854Z,62.03
2022-09-04T02:10:00.613Z,60.90
2022-09-04T02:12:50.987Z,64.67
2022-09-04T02:15:43.097Z,60.73
2022-09-04T02:18:24.577Z,62.10
2022-09-04T02:21:05.117Z,60.10
2022-09-04T02:23:44.335Z,62.70
2022-09-04T02:26:54.813Z,61.60
2022-09-04T02:29:40.296Z,62.03
2022-09-04T02:32:21.973Z,63.47
2022-09-04T02:35:34.220Z,61.33
2022-09-04T02:38:32.386Z,65.50
2022-09-04T02:41:28.217Z,70.37
2022-09-04T02:44:25.441Z,62.83
2022-09-04T02:47:05.334Z,62.53
2022-09-04T02:49:58.470Z,59.77
2022-09-04T02:52:59.683Z,64.50
2022-09-04T02:55:58.646Z,59.30
2022-09-04T02:58:30.181Z,61.43
2022-09-04T03:01:27.310Z,61.77
2022-09-04T03:04:19.138Z,62.80
2022-09-04T03:07:08.141Z,60.50
2022-09-04T03:09:51.781Z,59.93
2022-09-04T03:12:42.060Z,61.77
2022-09-04T03:15:27.420Z,59.50
2022-09-04T03:18:28.372Z,63.03
2022-09-04T03:21:03.466Z,64.60
2022-09-04T03:23:48.401Z,63.70
2022-09-04T03:26:34.786Z,61.27
2022-09-04T03:29:15.667Z,65.17
2022-09-04T03:32:16.495Z,59.40
2022-09-04T03:34:57.408Z,62.57
2022-09-04T03:37:38.193Z,66.37
2022-09-04T03:40:43.385Z,62.30
2022-09-04T03:43:22.148Z,66.82
2022-09-04T03:46:11.994Z,65.93
2022-09-04T03:49:07.403Z,68.93
2022-09-04T03:51:51.150Z,65.77
2022-09-04T03:54:32.364Z,71.27
2022-09-04T03:57:35.487Z,68.00
2022-09-04T04:00:10.880Z,63.73
2022-09-04T04:03:21.976Z,68.47
2022-09-04T04:06:15.046Z,70.33
2022-09-04T04:08:56.624Z,66.50
2022-09-04T04:12:04.396Z,71.10
2022-09-04T04:14:42.343Z,72.63
2022-09-04T04:17:51.813Z,72.47
2022-09-04T04:20:41.252Z,71.30
2022-09-04T04:23:37.721Z,72.97
2022-09-04T04:26:24.513Z,68.87
2022-09-04T04:29:08.626Z,72.20
2022-09-04T04:32:10.693Z,71.20
2022-09-04T04:35:04.950Z,71.37
2022-09-04T04:38:00.546Z,72.90
2022-09-04T04:41:03.136Z,75.37
2022-09-04T04:43:55.848Z,69.10
2022-09-04T04:46:46.154Z,73.03
2022-09-04T04:49:20.669Z,73.43
2022-09-04T04:54:41.439Z,76.33
2022-09-04T04:57:27.373Z,70.72
2022-09-04T05:00:32.159Z,70.47
2022-09-04T05:03:15.477Z,72.43
2022-09-04T05:06:16.385Z,71.90
2022-09-04T05:09:03.229Z,73.20
2022-09-04T05:12:03.170Z,77.97
2022-09-04T05:14:47.562Z,76.23
2022-09-04T05:17:40.670Z,73.55
2022-09-04T05:20:28.832Z,71.27
2022-09-04T05:23:17.169Z,71.73
2022-09-04T05:26:12.173Z,77.67
2022-09-04T05:28:59.509Z,76.47
2022-09-04T05:31:38.262Z,77.90
2022-09-04T05:34:36.005Z,74.03
2022-09-04T05:37:17.062Z,76.17
2022-09-04T05:40:07.050Z,76.43
2022-09-04T05:42:50.776Z,76.60
2022-09-04T05:45:49.270Z,79.70
2022-09-04T05:48:34.623Z,84.50
2022-09-04T05:51:18.546Z,82.57
2022-09-04T05:54:08.321Z,87.78
2022-09-04T05:56:50.120Z,81.27
2022-09-04T05:59:44.102Z,84.53
2022-09-04T06:02:49.959Z,88.85
2022-09-04T06:05:44.348Z,88.13
2022-09-04T06:08:29.004Z,91.18
2022-09-04T06:13:46.705Z,90.80
2022-09-04T06:16:27.468Z,97.60
2022-09-04T06:19:27.743Z,97.33
2022-09-04T06:22:05.313Z,95.67
2022-09-04T06:25:05.253Z,94.90
2022-09-04T06:28:20.047Z,98.57
2022-09-04T06:31:19.893Z,98.80
2022-09-04T06:34:06.862Z,101.07
2022-09-04T06:36:47.478Z,100.73
2022-09-04T06:39:42.468Z,98.03
2022-09-04T06:42:54.219Z,103.73
2022-09-04T06:45:42.655Z,105.00
2022-09-04T06:48:32.595Z,103.37
2022-09-04T06:51:08.132Z,101.70
2022-09-04T06:53:48.054Z,103.30
2022-09-04T06:56:22.435Z,107.53
2022-09-04T06:59:21.561Z,107.50
2022-09-04T07:02:04.093Z,108.53
2022-09-04T07:04:54.677Z,107.60
2022-09-04T07:07:58.436Z,109.60
2022-09-04T07:10:49.302Z,111.93
2022-09-04T07:13:44.189Z,109.10
2022-09-04T07:16:40.503Z,117.93
2022-09-04T07:19:56.337Z,118.37
2022-09-04T07:22:37.051Z,122.63
2022-09-04T07:25:29.841Z,118.73
2022-09-04T07:28:23.767Z,120.40
2022-09-04T07:31:08.218Z,116.07
2022-09-04T07:33:56.727Z,120.70
2022-09-04T07:36:40.085Z,121.37
2022-09-04T07:39:37.585Z,125.80
2022-09-04T07:42:32.726Z,121.03
2022-09-04T07:45:14.474Z,119.93
2022-09-04T07:47:57.334Z,120.33
2022-09-04T07:50:35.671Z,121.33
2022-09-04T07:53:25.505Z,118.00
2022-09-04T07:56:07.692Z,123.73
2022-09-04T07:58:56.731Z,119.27
2022-09-04T08:01:40.230Z,125.37
2022-09-04T08:04:15.129Z,121.70
2022-09-04T08:06:53.429Z,122.33
2022-09-04T08:10:06.621Z,127.65
2022-09-04T08:13:02.452Z,129.82
2022-09-04T08:15:49.912Z,121.40
2022-09-04T08:19:01.532Z,124.60
2022-09-04T08:21:40.131Z,126.45
2022-09-04T08:24:50.223Z,125.47
2022-09-04T08:27:49.942Z,131.88
2022-09-04T08:30:22.104Z,121.85
2022-09-04T08:33:20.609Z,127.18
2022-09-04T08:36:02.133Z,132.82
2022-09-04T08:38:36.719Z,127.50
2022-09-04T08:41:36.112Z,127.22
2022-09-04T08:44:32.605Z,127.95
2022-09-04T08:47:36.533Z,133.35
2022-09-04T08:50:38.468Z,128.15
2022-09-04T08:53:20.368Z,129.82
2022-09-04T08:56:11.125Z,131.45
2022-09-04T08:59:26.475Z,131.85
2022-09-04T09:02:06.975Z,129.80
2022-09-04T09:05:10.176Z,133.57
2022-09-04T09:07:52.178Z,134.32
2022-09-04T09:10:38.672Z,135.75
2022-09-04T09:13:16.194Z,134.80
2022-09-04T09:16:12.489Z,129.75
2022-09-04T09:19:10.145Z,133.40
2022-09-04T09:22:12.485Z,126.82
2022-09-04T09:25:22.850Z,132.20
2022-09-04T09:28:29.228Z,128.10
2022-09-04T09:31:16.879Z,131.02
2022-09-04T09:34:33.811Z,128.65
2022-09-04T09:37:28.519Z,125.43
2022-09-04T09:40:32.461Z,124.80
2022-09-04T09:43:17.634Z,128.90
2022-09-04T09:46:24.760Z,131.70
2022-09-04T09:49:05.389Z,132.73
2022-09-04T09:52:07.005Z,132.82
2022-09-04T09:55:09.534Z,132.02
2022-09-04T09:58:02.076Z,130.05
2022-09-04T10:01:00.157Z,134.10
2022-09-04T10:04:13.008Z,132.95
2022-09-04T10:07:20.024Z,133.43
2022-09-04T10:10:24.859Z,130.30
2022-09-04T10:13:14.921Z,133.43
2022-09-04T10:16:13.774Z,130.27
2022-09-04T10:19:18.281Z,132.98
2022-09-04T10:22:24.382Z,130.68
2022-09-04T10:25:09.678Z,126.20
2022-09-04T10:27:53.246Z,125.93
2022-09-04T10:30:37.386Z,128.27
2022-09-04T10:36:59.502Z,127.43
2022-09-04T10:40:25.030Z,124.50
2022-09-04T10:43:26.809Z,128.43
2022-09-04T10:46:13.748Z,129.90
2022-09-04T10:49:31.713Z,126.10
2022-09-04T10:52:30.293Z,125.68
2022-09-04T10:55:20.249Z,125.03
2022-09-04T10:58:08.758Z,118.88
2022-09-04T11:01:05.425Z,128.13
2022-09-04T11:03:44.316Z,127.40
2022-09-04T11:06:18.806Z,125.97
2022-09-04T11:08:53.160Z,125.53
2022-09-04T11:11:43.528Z,126.63
2022-09-04T11:14:43.342Z,124.43
2022-09-04T11:17:20.623Z,124.43
2022-09-04T11:20:27.382Z,124.75
2022-09-04T11:23:32.765Z,120.45
2022-09-04T11:26:29.937Z,124.25
2022-09-04T11:29:12.783Z,121.72
2022-09-04T11:32:12.895Z,119.20
2022-09-04T11:35:22.235Z,123.18
2022-09-04T11:38:25.233Z,121.90
2022-09-04T11:41:31.348Z,124.10
2022-09-04T11:44:02.878Z,125.22
2022-09-04T11:46:37.161Z,117.93
2022-09-04T11:49:16.332Z,122.05
2022-09-04T11:52:14.820Z,119.57
2022-09-04T11:55:07.495Z,118.80
2022-09-04T11:58:03.773Z,117.22
2022-09-04T12:01:16.300Z,118.70
2022-09-04T12:03:49.532Z,115.05
2022-09-04T12:06:39.618Z,112.10
2022-09-04T12:09:36.079Z,107.93
2022-09-04T12:12:58.224Z,104.68
2022-09-04T12:15:35.751Z,107.13
2022-09-04T12:18:33.510Z,106.28
2022-09-04T12:21:08.932Z,103.30
2022-09-04T12:24:07.477Z,103.05
2022-09-04T12:27:03.611Z,104.75
2022-09-04T12:30:03.867Z,101.73
2022-09-04T12:32:38.223Z,100.70
2022-09-04T12:35:32.075Z,103.77
2022-09-04T12:38:09.913Z,102.60
2022-09-04T12:41:13.501Z,103.47
2022-09-04T12:43:52.752Z,98.20
2022-09-04T12:47:00.563Z,103.23
2022-09-04T12:49:49.028Z,100.47
2022-09-04T12:52:42.174Z,99.77
2022-09-04T12:55:23.179Z,102.57
2022-09-04T12:58:33.870Z,104.13
2022-09-04T13:01:19.215Z,100.07
2022-09-04T13:04:01.191Z,104.17
2022-09-04T13:06:55.686Z,100.60
2022-09-04T13:12:56.107Z,101.57
2022-09-04T13:15:28.636Z,102.77
2022-09-04T13:18:22.264Z,101.33
2022-09-04T13:20:58.711Z,102.45
2022-09-04T13:24:10.918Z,103.83
2022-09-04T13:27:00.615Z,102.13
2022-09-04T13:30:05.642Z,102.27
2022-09-04T13:32:55.191Z,99.60
2022-09-04T13:35:42.940Z,100.87
2022-09-04T13:38:43.221Z,102.53
2022-09-04T13:41:38.839Z,98.67
2022-09-04T13:44:28.404Z,103.47
2022-09-04T13:47:06.583Z,98.83
2022-09-04T13:49:51.284Z,100.67
2022-09-04T13:52:34.131Z,97.17
2022-09-04T13:55:26.387Z,103.27
2022-09-04T13:58:10.976Z,96.33
2022-09-04T14:00:49.296Z,99.23
2022-09-04T14:03:36.492Z,100.00
2022-09-04T14:06:11.662Z,98.57
2022-09-04T14:08:46.311Z,105.40
2022-09-04T14:12:04.098Z,100.63
2022-09-04T14:14:51.396Z,97.27
2022-09-04T14:17:31.033Z,103.50
2022-09-04T14:20:24.900Z,100.27
2022-09-04T14:23:35.327Z,96.03
2022-09-04T14:26:12.980Z,101.07
2022-09-04T14:29:04.144Z,101.10
2022-09-04T14:31:52.364Z,95.13
2022-09-04T14:35:10.366Z,102.50
2022-09-04T14:38:05.465Z,102.10
2022-09-04T14:40:42.341Z,96.40
2022-09-04T14:43:28.495Z,100.23
2022-09-04T14:46:38.957Z,96.53
2022-09-04T14:49:17.171Z,98.23
2022-09-04T14:51:56.649Z,97.97
2022-09-04T14:54:53.045Z,102.80
2022-09-04T14:57:39.450Z,101.73
2022-09-04T15:00:20.835Z,104.30
2022-09-04T15:03:12.111Z,100.67
2022-09-04T15:05:56.776Z,100.17
2022-09-04T15:08:40.583Z,99.17
2022-09-04T15:11:31.657Z,97.03
2022-09-04T15:14:09.318Z,98.37
2022-09-04T15:16:49.696Z,94.77
2022-09-04T15:19:52.656Z,99.73
2022-09-04T15:22:57.600Z,102.97
2022-09-04T15:26:02.075Z,92.15
2022-09-04T15:28:39.799Z,101.82
2022-09-04T15:31:17.067Z,94.03
2022-09-04T15:33:49.155Z,97.07
2022-09-04T15:36:24.581Z,97.17
2022-09-04T15:38:59.098Z,95.80
2022-09-04T15:41:44.804Z,91.67
2022-09-04T15:44:33.115Z,95.17
2022-09-04T15:47:04.658Z,93.57
2022-09-04T15:49:41.942Z,96.40
2022-09-04T15:52:28.736Z,94.70
2022-09-04T15:55:28.365Z,94.97
2022-09-04T15:58:30.177Z,93.30
2022-09-04T16:01:12.088Z,92.77
2022-09-04T16:04:15.570Z,92.73
2022-09-04T16:06:57.759Z,94.17
2022-09-04T16:09:50.123Z,95.40
2022-09-04T16:12:30.800Z,96.73
2022-09-04T16:15:10.834Z,94.80
2022-09-04T16:17:47.105Z,98.97
2022-09-04T16:20:25.638Z,97.80
2022-09-04T16:23:07.546Z,95.00
2022-09-04T16:25:43.096Z,98.00
2022-09-04T16:28:25.552Z,100.60
2022-09-04T16:31:01.938Z,96.77
2022-09-04T16:33:40.753Z,98.87
2022-09-04T16:36:25.093Z,109.63
2022-09-04T16:39:13.393Z,92.27
2022-09-04T16:41:54.653Z,91.83
2022-09-04T16:44:38.549Z,95.47
2022-09-04T16:47:48.921Z,91.67
2022-09-04T16:50:23.561Z,93.77
2022-09-04T16:53:13.361Z,91.33
2022-09-04T16:56:00.882Z,87.97
2022-09-04T16:58:50.098Z,87.30
2022-09-04T17:01:57.237Z,93.40
2022-09-04T17:04:44.215Z,93.17
2022-09-04T17:07:23.304Z,91.20
2022-09-04T17:09:58.706Z,85.83
2022-09-04T17:13:01.333Z,87.77
2022-09-04T17:15:58.818Z,91.53
2022-09-04T17:18:31.729Z,92.63
2022-09-04T17:26:29.855Z,94.10
2022-09-04T17:29:01.072Z,94.93
2022-09-04T17:29:14.171Z,87.40
2022-09-04T17:31:15.615Z,92.13
2022-09-04T17:38:49.250Z,87.47
2022-09-04T17:40:40.195Z,89.03
2022-09-04T17:41:40.707Z,85.77
2022-09-04T17:44:03.332Z,86.93
2022-09-04T17:46:59.427Z,88.97
2022-09-04T17:49:34.723Z,84.00
2022-09-04T17:52:11.051Z,90.00
2022-09-04T17:54:48.849Z,84.80
2022-09-04T17:57:26.077Z,86.23
2022-09-04T18:00:06.884Z,84.07
2022-09-04T18:02:49.768Z,81.80
2022-09-04T18:05:33.647Z,84.77
2022-09-04T18:08:20.311Z,86.80
2022-09-04T18:11:01.073Z,83.72
2022-09-04T18:14:02.162Z,79.37
2022-09-04T18:16:38.483Z,85.73
2022-09-04T18:19:25.497Z,84.23
2022-09-04T18:22:31.956Z,82.57
2022-09-04T18:25:16.318Z,84.50
2022-09-04T18:28:22.091Z,83.50
2022-09-04T18:37:06.060Z,81.50
2022-09-04T18:37:19.638Z,84.20
2022-09-04T18:37:44.301Z,83.67
2022-09-04T18:40:39.187Z,83.93
2022-09-04T18:50:29.023Z,79.43
2022-09-04T18:50:34.959Z,81.47
2022-09-04T18:50:40.369Z,78.87
2022-09-04T18:56:20.443Z,79.87
2022-09-04T18:58:57.922Z,76.17
2022-09-04T19:01:38.438Z,78.87
2022-09-04T19:04:19.312Z,78.23
2022-09-04T19:07:07.150Z,77.47
2022-09-04T19:09:55.795Z,79.87
2022-09-04T19:12:52.185Z,79.10
2022-09-04T19:15:36.902Z,77.97
2022-09-04T19:18:45.998Z,78.53
2022-09-04T19:21:20.952Z,80.10
2022-09-04T19:24:22.538Z,78.03
2022-09-04T19:26:54.341Z,80.07
2022-09-04T19:29:31.792Z,76.47
2022-09-04T19:32:14.483Z,77.03
2022-09-04T19:34:55.182Z,76.13
2022-09-04T19:39:41.419Z,75.67
2022-09-04T19:46:05.197Z,75.43
2022-09-04T19:46:15.954Z,78.67
2022-09-04T19:47:28.911Z,75.97
2022-09-04T19:53:17.966Z,76.17
2022-09-04T19:53:42.158Z,78.53
2022-09-04T19:57:32.337Z,81.43
2022-09-04T19:59:44.908Z,75.60
2022-09-04T20:02:21.028Z,79.10
2022-09-04T20:04:58.969Z,78.53
2022-09-04T20:07:48.638Z,73.87
2022-09-04T20:10:32.080Z,76.27
2022-09-04T20:13:28.706Z,79.50
2022-09-04T20:16:25.184Z,77.30
2022-09-04T20:19:16.844Z,75.37
2022-09-04T20:22:25.753Z,74.87
2022-09-04T20:25:06.685Z,76.97
2022-09-04T20:27:46.071Z,80.33
2022-09-04T20:30:21.256Z,74.40
2022-09-04T20:33:12.025Z,74.57
2022-09-04T20:36:09.348Z,76.77
2022-09-04T20:39:05.740Z,72.53
2022-09-04T20:41:43.583Z,73.77
2022-09-04T20:44:45.862Z,74.73
2022-09-04T20:52:44.830Z,75.95
2022-09-04T20:52:54.193Z,74.35
2022-09-04T20:53:42.757Z,73.60
2022-09-04T20:58:35.038Z,76.53
2022-09-04T21:03:13.781Z,73.93
2022-09-04T21:03:15.216Z,72.40
2022-09-04T21:06:07.296Z,77.77
2022-09-04T21:08:52.193Z,74.13
2022-09-04T21:14:39.789Z,74.57
2022-09-04T21:17:33.799Z,73.60
2022-09-04T21:20:06.821Z,72.53
2022-09-04T21:22:59.598Z,72.07
2022-09-04T21:25:44.354Z,67.67
2022-09-04T21:28:26.003Z,69.87
2022-09-04T21:31:44.134Z,68.77
2022-09-04T21:34:31.174Z,72.57
2022-09-04T21:37:11.684Z,70.23
2022-09-04T21:40:49.652Z,72.60
2022-09-04T21:43:50.086Z,71.10
2022-09-04T21:46:57.779Z,69.17
2022-09-04T21:49:47.974Z,68.47
2022-09-04T21:52:53.440Z,67.27
2022-09-04T21:58:26.445Z,65.13
2022-09-04T22:02:39.898Z,66.67
2022-09-04T22:02:40.984Z,70.33
2022-09-04T22:05:18.429Z,67.03
2022-09-04T22:13:26.608Z,65.53
2022-09-04T22:13:30.995Z,67.03
2022-09-04T22:14:50.000Z,66.40
2022-09-04T22:17:22.456Z,70.50
2022-09-04T22:20:19.568Z,67.30
2022-09-04T22:23:20.214Z,69.63
2022-09-04T22:26:23.550Z,70.73
2022-09-04T22:29:26.606Z,65.57
2022-09-04T22:35:27.795Z,63.77
2022-09-04T22:38:28.685Z,68.27
2022-09-04T22:41:37.977Z,63.80
2022-09-04T22:44:36.752Z,70.93
2022-09-04T22:47:29.949Z,67.33
2022-09-04T22:50:37.347Z,63.03
2022-09-04T22:53:48.938Z,67.53
2022-09-04T22:56:34.322Z,64.43
2022-09-04T22:59:27.782Z,67.37
2022-09-04T23:02:13.611Z,64.73
2022-09-04T23:05:00.837Z,64.47
2022-09-04T23:13:44.859Z,67.37
2022-09-04T23:13:50.737Z,67.53
2022-09-04T23:14:53.888Z,64.37
2022-09-04T23:19:43.943Z,63.80
2022-09-04T23:26:32.532Z,65.17
2022-09-04T23:26:42.064Z,62.90
2022-09-04T23:27:46.250Z,64.30
2022-09-04T23:30:25.228Z,62.45
2022-09-04T23:33:27.678Z,64.07
2022-09-04T23:36:33.834Z,65.67
2022-09-04T23:39:27.797Z,61.27
2022-09-04T23:42:39.717Z,61.37
2022-09-04T23:45:48.795Z,62.33
2022-09-04T23:48:58.096Z,61.30
2022-09-04T23:52:04.922Z,61.30
2022-09-04T23:55:05.556Z,64.50
2022-09-04T23:58:34.067Z,59.00
